Terminal Aerodrome Forecast
Issued by NWS

Current Version | Previous Version | Text Only | Print | Product List | Glossary On
Versions: 1 2 3 4 5 6 7 8 9 10 11 12 13 14 15 16 17 18 19 20 21 22 23 24 25 26 27 28 29 30
000
FTPA31 PHFO 041100
TAFKOA
TAF
PHKO 041137Z 0412/0512 12005KT P6SM FEW025 BKN045
     FM042100 24008KT P6SM SCT030 SCT050
     FM050100 18009KT P6SM VCSH SCT025 BKN050
     FM050800 12006KT P6SM VCSH SCT025 BKN050=

USA.gov is the U.S. government's official web portal to all federal, state and local government web resources and services.